sensor_id;sensor_type;location;lat;lon;timestamp;P1;durP1;ratioP1;P2;durP2;ratioP2
27265;SDS011;14766;51.380;13.762;2023-03-01T00:01:39;10.23;;;5.88;;
27265;SDS011;14766;51.380;13.762;2023-03-01T00:04:06;12.30;;;5.90;;
27265;SDS011;14766;51.380;13.762;2023-03-01T00:06:33;10.13;;;6.20;;
27265;SDS011;14766;51.380;13.762;2023-03-01T00:09:02;8.73;;;5.65;;
27265;SDS011;14766;51.380;13.762;2023-03-01T00:11:30;8.27;;;5.38;;
27265;SDS011;14766;51.380;13.762;2023-03-01T00:13:59;10.30;;;6.20;;
27265;SDS011;14766;51.380;13.762;2023-03-01T00:16:29;8.98;;;5.40;;
27265;SDS011;14766;51.380;13.762;2023-03-01T00:18:58;8.80;;;4.97;;
27265;SDS011;14766;51.380;13.762;2023-03-01T00:21:26;9.75;;;5.35;;
27265;SDS011;14766;51.380;13.762;2023-03-01T00:23:54;9.48;;;6.00;;
27265;SDS011;14766;51.380;13.762;2023-03-01T00:26:22;8.52;;;5.20;;
27265;SDS011;14766;51.380;13.762;2023-03-01T00:28:50;8.93;;;5.60;;
27265;SDS011;14766;51.380;13.762;2023-03-01T00:31:19;9.38;;;5.53;;
27265;SDS011;14766;51.380;13.762;2023-03-01T00:33:48;8.32;;;5.07;;
27265;SDS011;14766;51.380;13.762;2023-03-01T00:36:26;9.30;;;5.70;;
27265;SDS011;14766;51.380;13.762;2023-03-01T00:38:56;9.45;;;5.40;;
27265;SDS011;14766;51.380;13.762;2023-03-01T00:41:25;8.65;;;4.60;;
27265;SDS011;14766;51.380;13.762;2023-03-01T00:43:53;10.15;;;5.22;;
27265;SDS011;14766;51.380;13.762;2023-03-01T00:46:22;9.73;;;5.55;;
27265;SDS011;14766;51.380;13.762;2023-03-01T00:48:51;10.38;;;5.70;;
27265;SDS011;14766;51.380;13.762;2023-03-01T00:51:19;9.32;;;5.13;;
27265;SDS011;14766;51.380;13.762;2023-03-01T00:53:57;8.30;;;5.20;;
27265;SDS011;14766;51.380;13.762;2023-03-01T00:56:25;9.18;;;5.40;;
27265;SDS011;14766;51.380;13.762;2023-03-01T00:58:53;7.63;;;5.13;;
27265;SDS011;14766;51.380;13.762;2023-03-01T01:01:21;8.38;;;4.80;;
27265;SDS011;14766;51.380;13.762;2023-03-01T01:03:52;9.25;;;5.43;;
27265;SDS011;14766;51.380;13.762;2023-03-01T01:06:28;8.73;;;5.60;;
27265;SDS011;14766;51.380;13.762;2023-03-01T01:08:57;6.50;;;4.63;;
27265;SDS011;14766;51.380;13.762;2023-03-01T01:11:26;9.07;;;4.85;;
27265;SDS011;14766;51.380;13.762;2023-03-01T01:13:55;9.70;;;5.20;;
27265;SDS011;14766;51.380;13.762;2023-03-01T01:16:24;10.65;;;4.85;;
27265;SDS011;14766;51.380;13.762;2023-03-01T01:18:53;11.18;;;5.10;;
27265;SDS011;14766;51.380;13.762;2023-03-01T01:21:21;7.80;;;5.00;;
27265;SDS011;14766;51.380;13.762;2023-03-01T01:23:49;7.18;;;4.85;;
27265;SDS011;14766;51.380;13.762;2023-03-01T01:26:18;8.32;;;5.07;;
27265;SDS011;14766;51.380;13.762;2023-03-01T01:28:50;8.48;;;4.75;;
27265;SDS011;14766;51.380;13.762;2023-03-01T01:31:18;7.65;;;4.95;;
27265;SDS011;14766;51.380;13.762;2023-03-01T01:33:45;9.45;;;5.10;;
27265;SDS011;14766;51.380;13.762;2023-03-01T01:36:12;10.05;;;5.43;;
27265;SDS011;14766;51.380;13.762;2023-03-01T01:38:40;8.80;;;5.00;;
27265;SDS011;14766;51.380;13.762;2023-03-01T01:41:09;8.95;;;4.88;;
27265;SDS011;14766;51.380;13.762;2023-03-01T01:48:58;6.75;;;4.75;;
27265;SDS011;14766;51.380;13.762;2023-03-01T01:51:30;7.82;;;4.70;;
27265;SDS011;14766;51.380;13.762;2023-03-01T01:54:10;7.05;;;4.65;;
27265;SDS011;14766;51.380;13.762;2023-03-01T01:56:42;10.35;;;5.50;;
27265;SDS011;14766;51.380;13.762;2023-03-01T01:59:13;9.75;;;5.55;;
27265;SDS011;14766;51.380;13.762;2023-03-01T02:01:41;8.38;;;5.07;;
27265;SDS011;14766;51.380;13.762;2023-03-01T02:04:08;7.93;;;4.72;;
27265;SDS011;14766;51.380;13.762;2023-03-01T02:06:37;7.13;;;4.85;;
27265;SDS011;14766;51.380;13.762;2023-03-01T02:09:13;8.90;;;5.55;;
27265;SDS011;14766;51.380;13.762;2023-03-01T02:11:44;9.13;;;4.85;;
27265;SDS011;14766;51.380;13.762;2023-03-01T02:14:14;11.70;;;5.35;;
27265;SDS011;14766;51.380;13.762;2023-03-01T02:16:42;9.13;;;5.38;;
27265;SDS011;14766;51.380;13.762;2023-03-01T02:19:13;10.25;;;5.22;;
27265;SDS011;14766;51.380;13.762;2023-03-01T02:22:07;7.28;;;4.65;;
27265;SDS011;14766;51.380;13.762;2023-03-01T02:27:55;9.57;;;5.18;;
27265;SDS011;14766;51.380;13.762;2023-03-01T02:30:24;8.20;;;5.20;;
27265;SDS011;14766;51.380;13.762;2023-03-01T02:32:52;8.82;;;5.20;;
27265;SDS011;14766;51.380;13.762;2023-03-01T02:35:36;7.43;;;4.78;;
27265;SDS011;14766;51.380;13.762;2023-03-01T02:38:06;10.65;;;5.30;;
27265;SDS011;14766;51.380;13.762;2023-03-01T02:40:35;9.60;;;5.50;;
27265;SDS011;14766;51.380;13.762;2023-03-01T02:43:06;9.15;;;5.15;;
27265;SDS011;14766;51.380;13.762;2023-03-01T02:45:36;10.95;;;6.00;;
27265;SDS011;14766;51.380;13.762;2023-03-01T02:48:04;9.80;;;5.80;;
27265;SDS011;14766;51.380;13.762;2023-03-01T02:51:16;9.48;;;5.55;;
27265;SDS011;14766;51.380;13.762;2023-03-01T02:53:23;8.52;;;5.22;;
27265;SDS011;14766;51.380;13.762;2023-03-01T02:56:00;9.55;;;5.63;;
27265;SDS011;14766;51.380;13.762;2023-03-01T02:58:28;7.97;;;5.20;;
27265;SDS011;14766;51.380;13.762;2023-03-01T03:00:55;9.20;;;5.18;;
27265;SDS011;14766;51.380;13.762;2023-03-01T03:03:23;10.65;;;5.38;;
27265;SDS011;14766;51.380;13.762;2023-03-01T03:05:51;9.68;;;5.53;;
27265;SDS011;14766;51.380;13.762;2023-03-01T03:08:17;11.88;;;6.10;;
27265;SDS011;14766;51.380;13.762;2023-03-01T03:10:51;10.63;;;5.75;;
27265;SDS011;14766;51.380;13.762;2023-03-01T03:13:19;8.85;;;5.60;;
27265;SDS011;14766;51.380;13.762;2023-03-01T03:15:49;9.82;;;6.10;;
27265;SDS011;14766;51.380;13.762;2023-03-01T03:18:16;9.02;;;5.43;;
27265;SDS011;14766;51.380;13.762;2023-03-01T03:20:43;11.30;;;5.78;;
27265;SDS011;14766;51.380;13.762;2023-03-01T03:23:12;9.75;;;5.45;;
27265;SDS011;14766;51.380;13.762;2023-03-01T03:25:39;8.25;;;4.90;;
27265;SDS011;14766;51.380;13.762;2023-03-01T03:28:06;7.55;;;5.28;;
27265;SDS011;14766;51.380;13.762;2023-03-01T03:30:38;8.27;;;5.00;;
27265;SDS011;14766;51.380;13.762;2023-03-01T03:33:06;8.85;;;5.63;;
27265;SDS011;14766;51.380;13.762;2023-03-01T03:35:39;11.65;;;6.20;;
27265;SDS011;14766;51.380;13.762;2023-03-01T03:38:10;8.40;;;5.47;;
27265;SDS011;14766;51.380;13.762;2023-03-01T03:40:45;11.55;;;5.60;;
27265;SDS011;14766;51.380;13.762;2023-03-01T03:43:15;8.65;;;5.47;;
27265;SDS011;14766;51.380;13.762;2023-03-01T03:45:44;9.05;;;5.55;;
27265;SDS011;14766;51.380;13.762;2023-03-01T03:48:12;8.73;;;5.45;;
27265;SDS011;14766;51.380;13.762;2023-03-01T03:50:40;8.93;;;5.40;;
27265;SDS011;14766;51.380;13.762;2023-03-01T03:53:09;12.23;;;6.13;;
27265;SDS011;14766;51.380;13.762;2023-03-01T03:55:37;8.07;;;5.40;;
27265;SDS011;14766;51.380;13.762;2023-03-01T03:58:08;8.63;;;5.32;;
27265;SDS011;14766;51.380;13.762;2023-03-01T04:00:40;9.25;;;6.18;;
27265;SDS011;14766;51.380;13.762;2023-03-01T04:03:10;10.35;;;6.32;;
27265;SDS011;14766;51.380;13.762;2023-03-01T04:05:39;13.05;;;6.47;;
27265;SDS011;14766;51.380;13.762;2023-03-01T04:08:07;10.50;;;5.88;;
27265;SDS011;14766;51.380;13.762;2023-03-01T04:10:44;9.45;;;5.53;;
27265;SDS011;14766;51.380;13.762;2023-03-01T04:13:15;10.38;;;5.55;;
27265;SDS011;14766;51.380;13.762;2023-03-01T04:15:47;8.98;;;6.05;;
27265;SDS011;14766;51.380;13.762;2023-03-01T04:18:20;9.35;;;5.15;;
27265;SDS011;14766;51.380;13.762;2023-03-01T04:20:49;10.18;;;5.72;;
27265;SDS011;14766;51.380;13.762;2023-03-01T04:23:19;8.48;;;5.13;;
27265;SDS011;14766;51.380;13.762;2023-03-01T04:25:48;10.00;;;5.80;;
27265;SDS011;14766;51.380;13.762;2023-03-01T04:28:22;9.48;;;5.68;;
27265;SDS011;14766;51.380;13.762;2023-03-01T04:30:51;10.18;;;5.63;;
27265;SDS011;14766;51.380;13.762;2023-03-01T04:33:19;10.32;;;5.65;;
27265;SDS011;14766;51.380;13.762;2023-03-01T04:35:46;9.07;;;6.15;;
27265;SDS011;14766;51.380;13.762;2023-03-01T04:38:17;8.90;;;5.45;;
27265;SDS011;14766;51.380;13.762;2023-03-01T04:40:45;9.73;;;5.80;;
27265;SDS011;14766;51.380;13.762;2023-03-01T04:43:13;11.40;;;5.90;;
27265;SDS011;14766;51.380;13.762;2023-03-01T04:45:41;9.20;;;5.30;;
27265;SDS011;14766;51.380;13.762;2023-03-01T04:48:08;11.75;;;5.88;;
27265;SDS011;14766;51.380;13.762;2023-03-01T04:50:35;7.80;;;5.57;;
27265;SDS011;14766;51.380;13.762;2023-03-01T04:53:03;11.48;;;5.60;;
27265;SDS011;14766;51.380;13.762;2023-03-01T04:55:30;9.75;;;5.25;;
27265;SDS011;14766;51.380;13.762;2023-03-01T04:57:58;8.85;;;5.55;;
27265;SDS011;14766;51.380;13.762;2023-03-01T05:00:25;9.25;;;5.00;;
27265;SDS011;14766;51.380;13.762;2023-03-01T05:02:57;7.75;;;5.20;;
27265;SDS011;14766;51.380;13.762;2023-03-01T05:05:33;9.13;;;5.70;;
27265;SDS011;14766;51.380;13.762;2023-03-01T05:08:04;9.00;;;4.82;;
27265;SDS011;14766;51.380;13.762;2023-03-01T05:10:34;9.93;;;4.80;;
27265;SDS011;14766;51.380;13.762;2023-03-01T05:13:02;7.75;;;5.32;;
27265;SDS011;14766;51.380;13.762;2023-03-01T05:15:31;10.05;;;5.07;;
27265;SDS011;14766;51.380;13.762;2023-03-01T05:17:59;11.32;;;5.55;;
27265;SDS011;14766;51.380;13.762;2023-03-01T05:20:27;12.45;;;5.45;;
27265;SDS011;14766;51.380;13.762;2023-03-01T05:22:58;11.40;;;5.32;;
27265;SDS011;14766;51.380;13.762;2023-03-01T05:25:27;10.27;;;5.50;;
27265;SDS011;14766;51.380;13.762;2023-03-01T05:28:00;12.15;;;5.78;;
27265;SDS011;14766;51.380;13.762;2023-03-01T05:30:34;8.93;;;4.90;;
27265;SDS011;14766;51.380;13.762;2023-03-01T05:33:01;12.43;;;6.70;;
27265;SDS011;14766;51.380;13.762;2023-03-01T05:35:28;10.80;;;6.10;;
27265;SDS011;14766;51.380;13.762;2023-03-01T05:37:59;8.98;;;5.85;;
27265;SDS011;14766;51.380;13.762;2023-03-01T05:40:26;9.00;;;5.50;;
27265;SDS011;14766;51.380;13.762;2023-03-01T05:42:54;12.00;;;6.35;;
27265;SDS011;14766;51.380;13.762;2023-03-01T05:45:23;12.50;;;6.68;;
27265;SDS011;14766;51.380;13.762;2023-03-01T05:47:52;13.48;;;7.32;;
27265;SDS011;14766;51.380;13.762;2023-03-01T05:50:22;15.00;;;7.50;;
27265;SDS011;14766;51.380;13.762;2023-03-01T05:52:58;13.23;;;6.95;;
27265;SDS011;14766;51.380;13.762;2023-03-01T05:55:34;14.82;;;6.43;;
27265;SDS011;14766;51.380;13.762;2023-03-01T05:58:03;12.60;;;6.35;;
27265;SDS011;14766;51.380;13.762;2023-03-01T06:00:33;10.98;;;5.80;;
27265;SDS011;14766;51.380;13.762;2023-03-01T06:03:00;12.93;;;7.60;;
27265;SDS011;14766;51.380;13.762;2023-03-01T06:05:28;12.80;;;7.35;;
27265;SDS011;14766;51.380;13.762;2023-03-01T06:07:58;9.70;;;6.00;;
27265;SDS011;14766;51.380;13.762;2023-03-01T06:10:36;11.02;;;5.93;;
27265;SDS011;14766;51.380;13.762;2023-03-01T06:13:04;9.88;;;5.53;;
27265;SDS011;14766;51.380;13.762;2023-03-01T06:15:31;11.88;;;6.60;;
27265;SDS011;14766;51.380;13.762;2023-03-01T06:17:58;12.45;;;6.30;;
27265;SDS011;14766;51.380;13.762;2023-03-01T06:20:26;15.20;;;6.95;;
27265;SDS011;14766;51.380;13.762;2023-03-01T06:22:54;10.68;;;6.53;;
27265;SDS011;14766;51.380;13.762;2023-03-01T06:25:23;14.63;;;7.25;;
27265;SDS011;14766;51.380;13.762;2023-03-01T06:27:51;13.32;;;7.35;;
27265;SDS011;14766;51.380;13.762;2023-03-01T06:30:19;12.75;;;6.68;;
27265;SDS011;14766;51.380;13.762;2023-03-01T06:32:47;11.75;;;6.80;;
27265;SDS011;14766;51.380;13.762;2023-03-01T06:35:15;11.38;;;6.90;;
27265;SDS011;14766;51.380;13.762;2023-03-01T06:37:44;11.18;;;6.35;;
27265;SDS011;14766;51.380;13.762;2023-03-01T06:40:13;13.98;;;7.70;;
27265;SDS011;14766;51.380;13.762;2023-03-01T06:42:42;11.25;;;6.70;;
27265;SDS011;14766;51.380;13.762;2023-03-01T06:45:13;9.85;;;6.32;;
27265;SDS011;14766;51.380;13.762;2023-03-01T06:47:42;10.57;;;6.30;;
27265;SDS011;14766;51.380;13.762;2023-03-01T06:50:09;9.75;;;6.65;;
27265;SDS011;14766;51.380;13.762;2023-03-01T06:52:38;11.40;;;7.22;;
27265;SDS011;14766;51.380;13.762;2023-03-01T06:55:05;12.07;;;7.22;;
27265;SDS011;14766;51.380;13.762;2023-03-01T06:57:33;12.88;;;7.32;;
27265;SDS011;14766;51.380;13.762;2023-03-01T07:00:00;12.40;;;7.05;;
27265;SDS011;14766;51.380;13.762;2023-03-01T07:02:27;11.52;;;7.65;;
27265;SDS011;14766;51.380;13.762;2023-03-01T07:04:54;13.68;;;7.65;;
27265;SDS011;14766;51.380;13.762;2023-03-01T07:07:21;18.92;;;9.05;;
27265;SDS011;14766;51.380;13.762;2023-03-01T07:09:49;13.55;;;8.93;;
27265;SDS011;14766;51.380;13.762;2023-03-01T07:12:16;15.65;;;9.82;;
27265;SDS011;14766;51.380;13.762;2023-03-01T07:14:43;15.25;;;9.43;;
27265;SDS011;14766;51.380;13.762;2023-03-01T07:17:11;16.50;;;9.73;;
27265;SDS011;14766;51.380;13.762;2023-03-01T07:19:38;15.13;;;9.90;;
27265;SDS011;14766;51.380;13.762;2023-03-01T07:22:05;14.30;;;9.27;;
27265;SDS011;14766;51.380;13.762;2023-03-01T07:24:34;16.90;;;9.68;;
27265;SDS011;14766;51.380;13.762;2023-03-01T07:27:01;18.80;;;10.75;;
27265;SDS011;14766;51.380;13.762;2023-03-01T07:29:29;20.27;;;10.73;;
27265;SDS011;14766;51.380;13.762;2023-03-01T07:31:56;20.83;;;12.30;;
27265;SDS011;14766;51.380;13.762;2023-03-01T07:34:23;18.85;;;11.15;;
27265;SDS011;14766;51.380;13.762;2023-03-01T07:36:51;22.85;;;12.48;;
27265;SDS011;14766;51.380;13.762;2023-03-01T07:39:18;22.45;;;12.90;;
27265;SDS011;14766;51.380;13.762;2023-03-01T07:41:46;20.58;;;12.25;;
27265;SDS011;14766;51.380;13.762;2023-03-01T07:44:13;19.20;;;12.40;;
27265;SDS011;14766;51.380;13.762;2023-03-01T07:46:40;22.00;;;12.85;;
27265;SDS011;14766;51.380;13.762;2023-03-01T07:49:07;19.63;;;12.40;;
27265;SDS011;14766;51.380;13.762;2023-03-01T07:51:34;17.35;;;12.05;;
27265;SDS011;14766;51.380;13.762;2023-03-01T07:54:02;16.70;;;12.10;;
27265;SDS011;14766;51.380;13.762;2023-03-01T07:56:29;17.48;;;12.02;;
27265;SDS011;14766;51.380;13.762;2023-03-01T07:58:58;18.40;;;12.20;;
27265;SDS011;14766;51.380;13.762;2023-03-01T08:01:26;19.30;;;11.77;;
27265;SDS011;14766;51.380;13.762;2023-03-01T08:03:53;22.40;;;13.70;;
27265;SDS011;14766;51.380;13.762;2023-03-01T08:06:20;19.35;;;13.35;;
27265;SDS011;14766;51.380;13.762;2023-03-01T08:08:48;19.20;;;13.20;;
27265;SDS011;14766;51.380;13.762;2023-03-01T08:11:15;20.48;;;13.43;;
27265;SDS011;14766;51.380;13.762;2023-03-01T08:13:46;19.63;;;13.25;;
27265;SDS011;14766;51.380;13.762;2023-03-01T08:16:19;18.70;;;14.43;;
27265;SDS011;14766;51.380;13.762;2023-03-01T08:18:47;19.20;;;14.02;;
27265;SDS011;14766;51.380;13.762;2023-03-01T08:21:15;21.52;;;15.43;;
27265;SDS011;14766;51.380;13.762;2023-03-01T08:23:44;20.77;;;14.73;;
27265;SDS011;14766;51.380;13.762;2023-03-01T08:26:15;20.85;;;15.13;;
27265;SDS011;14766;51.380;13.762;2023-03-01T08:28:45;22.33;;;15.50;;
27265;SDS011;14766;51.380;13.762;2023-03-01T08:31:20;21.58;;;15.02;;
27265;SDS011;14766;51.380;13.762;2023-03-01T08:33:53;23.73;;;16.02;;
27265;SDS011;14766;51.380;13.762;2023-03-01T08:36:23;20.00;;;15.68;;
27265;SDS011;14766;51.380;13.762;2023-03-01T08:39:04;22.33;;;16.67;;
27265;SDS011;14766;51.380;13.762;2023-03-01T08:41:31;21.45;;;17.05;;
27265;SDS011;14766;51.380;13.762;2023-03-01T08:43:58;25.40;;;17.38;;
27265;SDS011;14766;51.380;13.762;2023-03-01T08:46:26;24.38;;;17.75;;
27265;SDS011;14766;51.380;13.762;2023-03-01T08:48:58;26.20;;;17.27;;
27265;SDS011;14766;51.380;13.762;2023-03-01T08:51:26;22.63;;;16.60;;
27265;SDS011;14766;51.380;13.762;2023-03-01T08:53:53;25.30;;;16.73;;
27265;SDS011;14766;51.380;13.762;2023-03-01T08:56:20;29.60;;;18.75;;
27265;SDS011;14766;51.380;13.762;2023-03-01T08:58:48;29.02;;;19.55;;
27265;SDS011;14766;51.380;13.762;2023-03-01T09:01:16;23.13;;;17.63;;
27265;SDS011;14766;51.380;13.762;2023-03-01T09:03:45;25.75;;;17.42;;
27265;SDS011;14766;51.380;13.762;2023-03-01T09:06:13;23.52;;;16.80;;
27265;SDS011;14766;51.380;13.762;2023-03-01T09:08:43;21.63;;;16.17;;
27265;SDS011;14766;51.380;13.762;2023-03-01T09:11:13;21.98;;;16.75;;
27265;SDS011;14766;51.380;13.762;2023-03-01T09:13:44;21.23;;;16.00;;
27265;SDS011;14766;51.380;13.762;2023-03-01T09:16:14;22.50;;;16.50;;
27265;SDS011;14766;51.380;13.762;2023-03-01T09:18:50;22.05;;;16.52;;
27265;SDS011;14766;51.380;13.762;2023-03-01T09:21:29;27.02;;;18.30;;
27265;SDS011;14766;51.380;13.762;2023-03-01T09:24:08;26.45;;;18.75;;
27265;SDS011;14766;51.380;13.762;2023-03-01T09:26:40;27.05;;;18.92;;
27265;SDS011;14766;51.380;13.762;2023-03-01T09:29:08;26.83;;;19.25;;
27265;SDS011;14766;51.380;13.762;2023-03-01T09:31:36;21.65;;;16.45;;
27265;SDS011;14766;51.380;13.762;2023-03-01T09:34:03;23.80;;;16.80;;
27265;SDS011;14766;51.380;13.762;2023-03-01T09:36:31;20.52;;;15.82;;
27265;SDS011;14766;51.380;13.762;2023-03-01T09:39:00;23.80;;;16.27;;
27265;SDS011;14766;51.380;13.762;2023-03-01T09:44:48;18.55;;;14.80;;
27265;SDS011;14766;51.380;13.762;2023-03-01T09:47:34;19.70;;;14.85;;
27265;SDS011;14766;51.380;13.762;2023-03-01T09:50:19;21.50;;;15.68;;
27265;SDS011;14766;51.380;13.762;2023-03-01T09:55:43;19.30;;;14.77;;
27265;SDS011;14766;51.380;13.762;2023-03-01T10:00:56;21.27;;;15.25;;
27265;SDS011;14766;51.380;13.762;2023-03-01T10:03:34;21.77;;;15.20;;
27265;SDS011;14766;51.380;13.762;2023-03-01T10:06:11;18.75;;;14.77;;
27265;SDS011;14766;51.380;13.762;2023-03-01T10:09:16;19.88;;;14.88;;
27265;SDS011;14766;51.380;13.762;2023-03-01T10:11:53;21.05;;;15.85;;
27265;SDS011;14766;51.380;13.762;2023-03-01T10:19:41;20.48;;;14.48;;
27265;SDS011;14766;51.380;13.762;2023-03-01T10:24:58;22.95;;;16.27;;
27265;SDS011;14766;51.380;13.762;2023-03-01T10:27:41;18.38;;;14.88;;
27265;SDS011;14766;51.380;13.762;2023-03-01T10:30:19;19.42;;;14.50;;
27265;SDS011;14766;51.380;13.762;2023-03-01T10:32:49;20.88;;;15.13;;
27265;SDS011;14766;51.380;13.762;2023-03-01T10:35:26;19.60;;;14.88;;
27265;SDS011;14766;51.380;13.762;2023-03-01T10:38:02;18.67;;;14.32;;
27265;SDS011;14766;51.380;13.762;2023-03-01T10:40:49;17.92;;;12.63;;
27265;SDS011;14766;51.380;13.762;2023-03-01T10:43:24;18.05;;;13.25;;
27265;SDS011;14766;51.380;13.762;2023-03-01T10:45:56;21.10;;;14.82;;
27265;SDS011;14766;51.380;13.762;2023-03-01T10:48:24;19.98;;;12.98;;
27265;SDS011;14766;51.380;13.762;2023-03-01T10:53:28;19.00;;;14.20;;
27265;SDS011;14766;51.380;13.762;2023-03-01T10:58:33;16.48;;;12.45;;
27265;SDS011;14766;51.380;13.762;2023-03-01T11:01:06;17.67;;;12.00;;
27265;SDS011;14766;51.380;13.762;2023-03-01T11:04:17;18.70;;;12.77;;
27265;SDS011;14766;51.380;13.762;2023-03-01T11:06:44;18.63;;;13.10;;
27265;SDS011;14766;51.380;13.762;2023-03-01T11:09:29;19.58;;;13.32;;
27265;SDS011;14766;51.380;13.762;2023-03-01T11:12:12;17.27;;;12.50;;
27265;SDS011;14766;51.380;13.762;2023-03-01T11:14:47;20.65;;;13.25;;
27265;SDS011;14766;51.380;13.762;2023-03-01T11:17:31;19.98;;;13.80;;
27265;SDS011;14766;51.380;13.762;2023-03-01T11:22:54;19.17;;;12.97;;
27265;SDS011;14766;51.380;13.762;2023-03-01T11:25:31;19.98;;;13.55;;
27265;SDS011;14766;51.380;13.762;2023-03-01T11:28:04;19.38;;;13.77;;
27265;SDS011;14766;51.380;13.762;2023-03-01T11:30:41;20.80;;;13.85;;
27265;SDS011;14766;51.380;13.762;2023-03-01T11:39:20;19.08;;;13.48;;
27265;SDS011;14766;51.380;13.762;2023-03-01T11:42:05;19.83;;;12.88;;
27265;SDS011;14766;51.380;13.762;2023-03-01T11:44:47;17.02;;;12.65;;
27265;SDS011;14766;51.380;13.762;2023-03-01T11:53:34;18.42;;;12.10;;
27265;SDS011;14766;51.380;13.762;2023-03-01T12:04:20;19.88;;;11.60;;
27265;SDS011;14766;51.380;13.762;2023-03-01T12:07:01;17.27;;;11.50;;
27265;SDS011;14766;51.380;13.762;2023-03-01T12:09:41;17.98;;;11.07;;
27265;SDS011;14766;51.380;13.762;2023-03-01T12:18:10;15.52;;;11.05;;
27265;SDS011;14766;51.380;13.762;2023-03-01T12:29:24;16.60;;;10.63;;
27265;SDS011;14766;51.380;13.762;2023-03-01T12:32:28;16.17;;;11.30;;
27265;SDS011;14766;51.380;13.762;2023-03-01T12:49:38;16.23;;;10.07;;
27265;SDS011;14766;51.380;13.762;2023-03-01T12:52:16;14.40;;;9.95;;
27265;SDS011;14766;51.380;13.762;2023-03-01T12:55:06;12.60;;;8.70;;
27265;SDS011;14766;51.380;13.762;2023-03-01T12:58:20;12.73;;;7.90;;
27265;SDS011;14766;51.380;13.762;2023-03-01T13:04:14;8.25;;;5.85;;
27265;SDS011;14766;51.380;13.762;2023-03-01T13:15:30;10.02;;;6.25;;
27265;SDS011;14766;51.380;13.762;2023-03-01T13:20:47;9.98;;;6.45;;
27265;SDS011;14766;51.380;13.762;2023-03-01T13:23:37;10.00;;;7.28;;
27265;SDS011;14766;51.380;13.762;2023-03-01T13:26:13;11.23;;;6.88;;
27265;SDS011;14766;51.380;13.762;2023-03-01T13:28:47;10.90;;;6.57;;
27265;SDS011;14766;51.380;13.762;2023-03-01T13:33:47;13.77;;;8.68;;
27265;SDS011;14766;51.380;13.762;2023-03-01T13:38:57;13.05;;;8.43;;
27265;SDS011;14766;51.380;13.762;2023-03-01T13:46:56;12.90;;;8.60;;
27265;SDS011;14766;51.380;13.762;2023-03-01T13:49:36;11.93;;;7.80;;
27265;SDS011;14766;51.380;13.762;2023-03-01T13:55:26;14.68;;;8.75;;
27265;SDS011;14766;51.380;13.762;2023-03-01T13:58:25;16.50;;;10.23;;
27265;SDS011;14766;51.380;13.762;2023-03-01T14:03:30;15.20;;;9.38;;
27265;SDS011;14766;51.380;13.762;2023-03-01T14:06:03;14.75;;;9.38;;
27265;SDS011;14766;51.380;13.762;2023-03-01T14:08:44;14.10;;;9.45;;
27265;SDS011;14766;51.380;13.762;2023-03-01T14:19:57;13.60;;;8.63;;
27265;SDS011;14766;51.380;13.762;2023-03-01T14:22:34;14.45;;;9.00;;
27265;SDS011;14766;51.380;13.762;2023-03-01T14:25:06;14.25;;;9.27;;
27265;SDS011;14766;51.380;13.762;2023-03-01T14:27:43;15.25;;;9.50;;
27265;SDS011;14766;51.380;13.762;2023-03-01T14:32:52;16.80;;;9.95;;
27265;SDS011;14766;51.380;13.762;2023-03-01T14:35:23;16.48;;;10.10;;
27265;SDS011;14766;51.380;13.762;2023-03-01T14:37:53;15.65;;;9.52;;
27265;SDS011;14766;51.380;13.762;2023-03-01T14:40:24;14.60;;;9.02;;
27265;SDS011;14766;51.380;13.762;2023-03-01T14:42:54;13.13;;;7.97;;
27265;SDS011;14766;51.380;13.762;2023-03-01T14:45:26;13.43;;;9.27;;
27265;SDS011;14766;51.380;13.762;2023-03-01T14:47:58;13.68;;;8.50;;
27265;SDS011;14766;51.380;13.762;2023-03-01T14:50:31;13.90;;;9.27;;
27265;SDS011;14766;51.380;13.762;2023-03-01T14:53:03;15.40;;;8.73;;
27265;SDS011;14766;51.380;13.762;2023-03-01T14:55:38;16.75;;;9.60;;
27265;SDS011;14766;51.380;13.762;2023-03-01T14:58:12;14.35;;;9.35;;
27265;SDS011;14766;51.380;13.762;2023-03-01T15:00:48;16.08;;;9.85;;
27265;SDS011;14766;51.380;13.762;2023-03-01T15:03:26;13.60;;;8.95;;
27265;SDS011;14766;51.380;13.762;2023-03-01T15:06:01;14.55;;;9.75;;
27265;SDS011;14766;51.380;13.762;2023-03-01T15:08:30;16.75;;;10.02;;
27265;SDS011;14766;51.380;13.762;2023-03-01T15:11:15;14.25;;;9.23;;
27265;SDS011;14766;51.380;13.762;2023-03-01T15:13:51;15.38;;;9.15;;
27265;SDS011;14766;51.380;13.762;2023-03-01T15:16:21;14.18;;;9.10;;
27265;SDS011;14766;51.380;13.762;2023-03-01T15:21:29;13.85;;;9.23;;
27265;SDS011;14766;51.380;13.762;2023-03-01T15:29:24;15.05;;;9.63;;
27265;SDS011;14766;51.380;13.762;2023-03-01T15:34:49;14.70;;;8.45;;
27265;SDS011;14766;51.380;13.762;2023-03-01T15:40:23;13.23;;;8.07;;
27265;SDS011;14766;51.380;13.762;2023-03-01T15:42:58;13.07;;;8.35;;
27265;SDS011;14766;51.380;13.762;2023-03-01T15:45:27;14.32;;;8.57;;
27265;SDS011;14766;51.380;13.762;2023-03-01T15:53:24;12.07;;;6.90;;
27265;SDS011;14766;51.380;13.762;2023-03-01T15:55:54;13.50;;;7.72;;
27265;SDS011;14766;51.380;13.762;2023-03-01T15:58:22;11.57;;;6.78;;
27265;SDS011;14766;51.380;13.762;2023-03-01T16:00:50;13.90;;;7.90;;
27265;SDS011;14766;51.380;13.762;2023-03-01T16:03:28;13.95;;;7.75;;
27265;SDS011;14766;51.380;13.762;2023-03-01T16:05:56;17.35;;;9.75;;
27265;SDS011;14766;51.380;13.762;2023-03-01T16:08:23;21.30;;;12.85;;
27265;SDS011;14766;51.380;13.762;2023-03-01T16:10:51;41.15;;;21.08;;
27265;SDS011;14766;51.380;13.762;2023-03-01T16:13:20;27.48;;;14.82;;
27265;SDS011;14766;51.380;13.762;2023-03-01T16:15:47;16.90;;;9.52;;
27265;SDS011;14766;51.380;13.762;2023-03-01T16:18:14;12.55;;;7.45;;
27265;SDS011;14766;51.380;13.762;2023-03-01T16:20:41;11.27;;;7.05;;
27265;SDS011;14766;51.380;13.762;2023-03-01T16:23:10;12.65;;;7.07;;
27265;SDS011;14766;51.380;13.762;2023-03-01T16:25:38;13.00;;;7.20;;
27265;SDS011;14766;51.380;13.762;2023-03-01T16:28:05;23.52;;;13.07;;
27265;SDS011;14766;51.380;13.762;2023-03-01T16:30:36;23.60;;;13.43;;
27265;SDS011;14766;51.380;13.762;2023-03-01T16:33:07;37.08;;;20.70;;
27265;SDS011;14766;51.380;13.762;2023-03-01T16:35:55;33.05;;;19.15;;
27265;SDS011;14766;51.380;13.762;2023-03-01T16:38:24;21.23;;;13.00;;
27265;SDS011;14766;51.380;13.762;2023-03-01T16:40:52;25.67;;;13.73;;
27265;SDS011;14766;51.380;13.762;2023-03-01T16:43:19;27.02;;;14.00;;
27265;SDS011;14766;51.380;13.762;2023-03-01T16:45:46;34.40;;;17.13;;
27265;SDS011;14766;51.380;13.762;2023-03-01T16:48:14;54.55;;;27.40;;
27265;SDS011;14766;51.380;13.762;2023-03-01T16:50:41;52.63;;;26.95;;
27265;SDS011;14766;51.380;13.762;2023-03-01T16:53:08;53.05;;;27.10;;
27265;SDS011;14766;51.380;13.762;2023-03-01T16:55:36;47.20;;;25.13;;
27265;SDS011;14766;51.380;13.762;2023-03-01T16:58:04;29.13;;;15.73;;
27265;SDS011;14766;51.380;13.762;2023-03-01T17:00:32;22.42;;;12.02;;
27265;SDS011;14766;51.380;13.762;2023-03-01T17:02:59;26.58;;;13.75;;
27265;SDS011;14766;51.380;13.762;2023-03-01T17:05:26;26.83;;;13.70;;
27265;SDS011;14766;51.380;13.762;2023-03-01T17:07:54;17.25;;;10.32;;
27265;SDS011;14766;51.380;13.762;2023-03-01T17:10:22;17.98;;;9.30;;